sensor_id;sensor_type;location;lat;lon;timestamp;temperature;humidity
14531;DHT22;7352;50.866;4.366;2023-05-07T00:01:01;19.90;99.90
14531;DHT22;7352;50.866;4.366;2023-05-07T00:03:28;19.90;99.90
14531;DHT22;7352;50.866;4.366;2023-05-07T00:05:55;19.80;99.90
14531;DHT22;7352;50.866;4.366;2023-05-07T00:08:23;19.70;99.90
14531;DHT22;7352;50.866;4.366;2023-05-07T00:10:54;19.70;99.90
14531;DHT22;7352;50.866;4.366;2023-05-07T00:13:21;19.60;99.90
14531;DHT22;7352;50.866;4.366;2023-05-07T00:15:49;19.70;99.90
14531;DHT22;7352;50.866;4.366;2023-05-07T00:18:16;19.80;99.90
14531;DHT22;7352;50.866;4.366;2023-05-07T00:20:47;19.70;99.90
14531;DHT22;7352;50.866;4.366;2023-05-07T00:23:14;19.70;99.90
14531;DHT22;7352;50.866;4.366;2023-05-07T00:25:43;19.70;99.90
14531;DHT22;7352;50.866;4.366;2023-05-07T00:28:14;19.50;99.90
14531;DHT22;7352;50.866;4.366;2023-05-07T00:30:41;19.60;99.90
14531;DHT22;7352;50.866;4.366;2023-05-07T00:33:08;19.60;99.90
14531;DHT22;7352;50.866;4.366;2023-05-07T00:35:35;19.60;99.90
14531;DHT22;7352;50.866;4.366;2023-05-07T00:38:03;19.60;99.90
14531;DHT22;7352;50.866;4.366;2023-05-07T00:40:29;19.70;99.90
14531;DHT22;7352;50.866;4.366;2023-05-07T00:42:57;19.70;99.90
14531;DHT22;7352;50.866;4.366;2023-05-07T00:45:27;19.60;99.90
14531;DHT22;7352;50.866;4.366;2023-05-07T00:47:55;19.70;99.90
14531;DHT22;7352;50.866;4.366;2023-05-07T00:50:25;19.70;99.90
14531;DHT22;7352;50.866;4.366;2023-05-07T00:52:53;19.50;99.90
14531;DHT22;7352;50.866;4.366;2023-05-07T00:55:21;19.60;99.90
14531;DHT22;7352;50.866;4.366;2023-05-07T00:57:49;19.40;99.90
14531;DHT22;7352;50.866;4.366;2023-05-07T01:00:17;19.50;99.90
14531;DHT22;7352;50.866;4.366;2023-05-07T01:02:46;19.40;99.90
14531;DHT22;7352;50.866;4.366;2023-05-07T01:05:15;19.50;99.90
14531;DHT22;7352;50.866;4.366;2023-05-07T01:07:44;19.50;99.90
14531;DHT22;7352;50.866;4.366;2023-05-07T01:10:12;19.60;99.90
14531;DHT22;7352;50.866;4.366;2023-05-07T01:12:40;19.50;99.90
14531;DHT22;7352;50.866;4.366;2023-05-07T01:15:09;19.50;99.90
14531;DHT22;7352;50.866;4.366;2023-05-07T01:17:37;19.70;99.90
14531;DHT22;7352;50.866;4.366;2023-05-07T01:20:07;19.70;99.90
14531;DHT22;7352;50.866;4.366;2023-05-07T01:22:37;19.60;99.90
14531;DHT22;7352;50.866;4.366;2023-05-07T01:25:06;19.40;99.90
14531;DHT22;7352;50.866;4.366;2023-05-07T01:27:35;19.30;99.90
14531;DHT22;7352;50.866;4.366;2023-05-07T01:30:03;19.30;99.90
14531;DHT22;7352;50.866;4.366;2023-05-07T01:32:33;19.40;99.90
14531;DHT22;7352;50.866;4.366;2023-05-07T01:35:04;19.30;99.90
14531;DHT22;7352;50.866;4.366;2023-05-07T01:37:32;19.30;99.90
14531;DHT22;7352;50.866;4.366;2023-05-07T01:40:01;19.30;99.90
14531;DHT22;7352;50.866;4.366;2023-05-07T01:42:29;19.20;99.90
14531;DHT22;7352;50.866;4.366;2023-05-07T01:44:56;19.30;99.90
14531;DHT22;7352;50.866;4.366;2023-05-07T01:47:23;19.10;99.90
14531;DHT22;7352;50.866;4.366;2023-05-07T01:49:50;19.10;99.90
14531;DHT22;7352;50.866;4.366;2023-05-07T01:52:17;19.00;99.90
14531;DHT22;7352;50.866;4.366;2023-05-07T01:54:44;19.20;99.90
14531;DHT22;7352;50.866;4.366;2023-05-07T01:57:13;19.10;99.90
14531;DHT22;7352;50.866;4.366;2023-05-07T01:59:40;19.10;99.90
14531;DHT22;7352;50.866;4.366;2023-05-07T02:02:07;19.10;99.90
14531;DHT22;7352;50.866;4.366;2023-05-07T02:04:33;19.20;99.90
14531;DHT22;7352;50.866;4.366;2023-05-07T02:07:00;19.10;99.90
14531;DHT22;7352;50.866;4.366;2023-05-07T02:09:27;18.80;99.90
14531;DHT22;7352;50.866;4.366;2023-05-07T02:11:54;18.90;99.90
14531;DHT22;7352;50.866;4.366;2023-05-07T02:14:23;19.00;99.90
14531;DHT22;7352;50.866;4.366;2023-05-07T02:16:51;18.90;99.90
14531;DHT22;7352;50.866;4.366;2023-05-07T02:19:18;19.00;99.90
14531;DHT22;7352;50.866;4.366;2023-05-07T02:21:46;19.00;99.90
14531;DHT22;7352;50.866;4.366;2023-05-07T02:24:14;19.00;99.90
14531;DHT22;7352;50.866;4.366;2023-05-07T02:26:41;19.00;99.90
14531;DHT22;7352;50.866;4.366;2023-05-07T02:29:08;18.90;99.90
14531;DHT22;7352;50.866;4.366;2023-05-07T02:31:37;19.00;99.90
14531;DHT22;7352;50.866;4.366;2023-05-07T02:34:04;18.70;99.90
14531;DHT22;7352;50.866;4.366;2023-05-07T02:36:31;18.80;99.90
14531;DHT22;7352;50.866;4.366;2023-05-07T02:38:59;18.60;99.90
14531;DHT22;7352;50.866;4.366;2023-05-07T02:41:26;18.50;99.90
14531;DHT22;7352;50.866;4.366;2023-05-07T02:43:53;18.50;99.90
14531;DHT22;7352;50.866;4.366;2023-05-07T02:46:20;18.30;99.90
14531;DHT22;7352;50.866;4.366;2023-05-07T02:48:48;18.60;99.90
14531;DHT22;7352;50.866;4.366;2023-05-07T02:51:19;18.50;99.90
14531;DHT22;7352;50.866;4.366;2023-05-07T02:53:46;18.50;99.90
14531;DHT22;7352;50.866;4.366;2023-05-07T02:56:13;18.40;99.90
14531;DHT22;7352;50.866;4.366;2023-05-07T02:58:40;18.30;99.90
14531;DHT22;7352;50.866;4.366;2023-05-07T03:01:07;18.20;99.90
14531;DHT22;7352;50.866;4.366;2023-05-07T03:03:35;18.20;99.90
14531;DHT22;7352;50.866;4.366;2023-05-07T03:06:04;18.00;99.90
14531;DHT22;7352;50.866;4.366;2023-05-07T03:08:32;18.20;99.90
14531;DHT22;7352;50.866;4.366;2023-05-07T03:11:00;18.10;99.90
14531;DHT22;7352;50.866;4.366;2023-05-07T03:13:27;18.20;99.90
14531;DHT22;7352;50.866;4.366;2023-05-07T03:15:54;18.40;99.90
14531;DHT22;7352;50.866;4.366;2023-05-07T03:18:20;18.40;99.90
14531;DHT22;7352;50.866;4.366;2023-05-07T03:20:48;18.40;99.90
14531;DHT22;7352;50.866;4.366;2023-05-07T03:23:17;18.40;99.90
14531;DHT22;7352;50.866;4.366;2023-05-07T03:25:44;18.50;99.90
14531;DHT22;7352;50.866;4.366;2023-05-07T03:28:11;18.50;99.90
14531;DHT22;7352;50.866;4.366;2023-05-07T03:30:38;18.50;99.90
14531;DHT22;7352;50.866;4.366;2023-05-07T03:33:05;18.40;99.90
14531;DHT22;7352;50.866;4.366;2023-05-07T03:35:32;18.30;99.90
14531;DHT22;7352;50.866;4.366;2023-05-07T03:37:59;18.40;99.90
14531;DHT22;7352;50.866;4.366;2023-05-07T03:40:28;18.50;99.90
14531;DHT22;7352;50.866;4.366;2023-05-07T03:42:55;18.50;99.90
14531;DHT22;7352;50.866;4.366;2023-05-07T03:45:22;18.50;99.90
14531;DHT22;7352;50.866;4.366;2023-05-07T03:47:49;18.50;99.90
14531;DHT22;7352;50.866;4.366;2023-05-07T03:50:15;18.40;99.90
14531;DHT22;7352;50.866;4.366;2023-05-07T03:52:43;18.40;99.90
14531;DHT22;7352;50.866;4.366;2023-05-07T03:55:10;18.40;99.90
14531;DHT22;7352;50.866;4.366;2023-05-07T03:57:38;18.50;99.90
14531;DHT22;7352;50.866;4.366;2023-05-07T04:00:06;18.60;99.90
14531;DHT22;7352;50.866;4.366;2023-05-07T04:02:33;18.60;99.90
14531;DHT22;7352;50.866;4.366;2023-05-07T04:05:00;18.50;99.90
14531;DHT22;7352;50.866;4.366;2023-05-07T04:07:27;18.50;99.90
14531;DHT22;7352;50.866;4.366;2023-05-07T04:09:54;18.60;99.90
14531;DHT22;7352;50.866;4.366;2023-05-07T04:12:22;18.60;99.90
14531;DHT22;7352;50.866;4.366;2023-05-07T04:14:50;18.60;99.90
14531;DHT22;7352;50.866;4.366;2023-05-07T04:17:17;18.60;99.90
14531;DHT22;7352;50.866;4.366;2023-05-07T04:19:45;18.50;99.90
14531;DHT22;7352;50.866;4.366;2023-05-07T04:22:12;18.60;99.90
14531;DHT22;7352;50.866;4.366;2023-05-07T04:24:39;18.50;99.90
14531;DHT22;7352;50.866;4.366;2023-05-07T04:27:06;18.60;99.90
14531;DHT22;7352;50.866;4.366;2023-05-07T04:29:33;18.60;99.90
14531;DHT22;7352;50.866;4.366;2023-05-07T04:32:02;18.60;99.90
14531;DHT22;7352;50.866;4.366;2023-05-07T04:34:29;18.60;99.90
14531;DHT22;7352;50.866;4.366;2023-05-07T04:36:58;18.60;99.90
14531;DHT22;7352;50.866;4.366;2023-05-07T04:39:26;18.60;99.90
14531;DHT22;7352;50.866;4.366;2023-05-07T04:41:53;18.70;99.90
14531;DHT22;7352;50.866;4.366;2023-05-07T04:44:20;18.70;99.90
14531;DHT22;7352;50.866;4.366;2023-05-07T04:46:47;18.50;99.90
14531;DHT22;7352;50.866;4.366;2023-05-07T04:49:15;18.50;99.90
14531;DHT22;7352;50.866;4.366;2023-05-07T04:51:43;18.60;99.90
14531;DHT22;7352;50.866;4.366;2023-05-07T04:54:10;18.80;99.90
14531;DHT22;7352;50.866;4.366;2023-05-07T04:56:37;18.90;99.90
14531;DHT22;7352;50.866;4.366;2023-05-07T04:59:04;18.90;99.90
14531;DHT22;7352;50.866;4.366;2023-05-07T05:01:31;18.90;99.90
14531;DHT22;7352;50.866;4.366;2023-05-07T05:03:58;19.00;99.90
14531;DHT22;7352;50.866;4.366;2023-05-07T05:06:27;18.90;99.90
14531;DHT22;7352;50.866;4.366;2023-05-07T05:08:54;18.90;99.90
14531;DHT22;7352;50.866;4.366;2023-05-07T05:11:21;19.00;99.90
14531;DHT22;7352;50.866;4.366;2023-05-07T05:13:48;19.10;99.90
14531;DHT22;7352;50.866;4.366;2023-05-07T05:16:15;19.10;99.90
14531;DHT22;7352;50.866;4.366;2023-05-07T05:18:42;19.10;99.90
14531;DHT22;7352;50.866;4.366;2023-05-07T05:21:09;19.20;99.90
14531;DHT22;7352;50.866;4.366;2023-05-07T05:23:37;19.20;99.90
14531;DHT22;7352;50.866;4.366;2023-05-07T05:26:05;19.30;99.90
14531;DHT22;7352;50.866;4.366;2023-05-07T05:28:32;19.30;99.90
14531;DHT22;7352;50.866;4.366;2023-05-07T05:30:59;19.30;99.90
14531;DHT22;7352;50.866;4.366;2023-05-07T05:33:26;19.40;99.90
14531;DHT22;7352;50.866;4.366;2023-05-07T05:35:54;19.40;99.90
14531;DHT22;7352;50.866;4.366;2023-05-07T05:38:21;19.60;99.90
14531;DHT22;7352;50.866;4.366;2023-05-07T05:40:50;19.60;99.90
14531;DHT22;7352;50.866;4.366;2023-05-07T05:43:17;19.50;99.90
14531;DHT22;7352;50.866;4.366;2023-05-07T05:45:44;19.60;99.90
14531;DHT22;7352;50.866;4.366;2023-05-07T05:48:11;19.50;99.90
14531;DHT22;7352;50.866;4.366;2023-05-07T05:50:38;19.50;99.90
14531;DHT22;7352;50.866;4.366;2023-05-07T05:53:05;19.50;99.90
14531;DHT22;7352;50.866;4.366;2023-05-07T05:55:32;19.50;99.90
14531;DHT22;7352;50.866;4.366;2023-05-07T05:58:00;19.60;99.90
14531;DHT22;7352;50.866;4.366;2023-05-07T06:00:28;19.60;99.90
14531;DHT22;7352;50.866;4.366;2023-05-07T06:02:56;19.60;99.90
14531;DHT22;7352;50.866;4.366;2023-05-07T06:05:23;19.60;99.90
14531;DHT22;7352;50.866;4.366;2023-05-07T06:07:51;19.40;99.90
14531;DHT22;7352;50.866;4.366;2023-05-07T06:10:18;19.40;99.90
14531;DHT22;7352;50.866;4.366;2023-05-07T06:12:45;19.40;99.90
14531;DHT22;7352;50.866;4.366;2023-05-07T06:15:14;19.20;99.90
14531;DHT22;7352;50.866;4.366;2023-05-07T06:17:40;19.10;99.90
14531;DHT22;7352;50.866;4.366;2023-05-07T06:20:08;19.00;99.90
14531;DHT22;7352;50.866;4.366;2023-05-07T06:22:35;18.90;99.90
14531;DHT22;7352;50.866;4.366;2023-05-07T06:25:02;18.80;99.90
14531;DHT22;7352;50.866;4.366;2023-05-07T06:27:29;18.70;99.90
14531;DHT22;7352;50.866;4.366;2023-05-07T06:29:56;18.70;99.90
14531;DHT22;7352;50.866;4.366;2023-05-07T06:32:24;18.70;99.90
14531;DHT22;7352;50.866;4.366;2023-05-07T06:34:51;18.80;99.90
14531;DHT22;7352;50.866;4.366;2023-05-07T06:37:18;18.90;99.90
14531;DHT22;7352;50.866;4.366;2023-05-07T06:39:45;19.10;99.90
14531;DHT22;7352;50.866;4.366;2023-05-07T06:42:12;19.30;99.90
14531;DHT22;7352;50.866;4.366;2023-05-07T06:44:39;19.20;99.90
14531;DHT22;7352;50.866;4.366;2023-05-07T06:47:06;19.30;99.90
14531;DHT22;7352;50.866;4.366;2023-05-07T06:49:34;19.40;99.90
14531;DHT22;7352;50.866;4.366;2023-05-07T06:52:01;19.60;99.90
14531;DHT22;7352;50.866;4.366;2023-05-07T06:54:29;19.80;99.90
14531;DHT22;7352;50.866;4.366;2023-05-07T06:56:56;19.70;99.90
14531;DHT22;7352;50.866;4.366;2023-05-07T06:59:23;19.50;99.90
14531;DHT22;7352;50.866;4.366;2023-05-07T07:01:51;19.30;99.90
14531;DHT22;7352;50.866;4.366;2023-05-07T07:04:18;19.20;99.90
14531;DHT22;7352;50.866;4.366;2023-05-07T07:06:49;19.10;99.90
14531;DHT22;7352;50.866;4.366;2023-05-07T07:09:16;19.10;99.90
14531;DHT22;7352;50.866;4.366;2023-05-07T07:11:43;19.30;99.90
14531;DHT22;7352;50.866;4.366;2023-05-07T07:14:10;19.20;99.90
14531;DHT22;7352;50.866;4.366;2023-05-07T07:16:37;19.10;99.90
14531;DHT22;7352;50.866;4.366;2023-05-07T07:19:04;19.10;99.90
14531;DHT22;7352;50.866;4.366;2023-05-07T07:21:31;19.00;99.90
14531;DHT22;7352;50.866;4.366;2023-05-07T07:23:59;19.10;99.90
14531;DHT22;7352;50.866;4.366;2023-05-07T07:26:26;18.90;99.90
14531;DHT22;7352;50.866;4.366;2023-05-07T07:28:53;18.90;99.90
14531;DHT22;7352;50.866;4.366;2023-05-07T07:31:20;18.90;99.90
14531;DHT22;7352;50.866;4.366;2023-05-07T07:33:47;18.90;99.90
14531;DHT22;7352;50.866;4.366;2023-05-07T07:36:16;18.90;99.90
14531;DHT22;7352;50.866;4.366;2023-05-07T07:38:42;18.90;99.90
14531;DHT22;7352;50.866;4.366;2023-05-07T07:41:11;18.90;99.90
14531;DHT22;7352;50.866;4.366;2023-05-07T07:43:38;19.00;99.90
14531;DHT22;7352;50.866;4.366;2023-05-07T07:46:05;19.10;99.90
14531;DHT22;7352;50.866;4.366;2023-05-07T07:48:32;19.00;99.90
14531;DHT22;7352;50.866;4.366;2023-05-07T07:50:59;19.00;99.90
14531;DHT22;7352;50.866;4.366;2023-05-07T07:53:26;19.00;99.90
14531;DHT22;7352;50.866;4.366;2023-05-07T07:55:53;18.80;99.90
14531;DHT22;7352;50.866;4.366;2023-05-07T07:58:23;18.70;99.90
14531;DHT22;7352;50.866;4.366;2023-05-07T08:00:50;18.80;99.90
14531;DHT22;7352;50.866;4.366;2023-05-07T08:03:18;18.80;99.90
14531;DHT22;7352;50.866;4.366;2023-05-07T08:05:45;19.00;99.90
14531;DHT22;7352;50.866;4.366;2023-05-07T08:08:12;19.10;99.90
14531;DHT22;7352;50.866;4.366;2023-05-07T08:10:39;19.00;99.90
14531;DHT22;7352;50.866;4.366;2023-05-07T08:13:06;19.00;99.90
14531;DHT22;7352;50.866;4.366;2023-05-07T08:15:35;19.20;99.90
14531;DHT22;7352;50.866;4.366;2023-05-07T08:18:02;19.30;99.90
14531;DHT22;7352;50.866;4.366;2023-05-07T08:20:29;19.30;99.90
14531;DHT22;7352;50.866;4.366;2023-05-07T08:22:56;19.40;99.90
14531;DHT22;7352;50.866;4.366;2023-05-07T08:25:23;19.30;99.90
14531;DHT22;7352;50.866;4.366;2023-05-07T08:27:50;19.50;99.90
14531;DHT22;7352;50.866;4.366;2023-05-07T08:30:18;19.30;99.90
14531;DHT22;7352;50.866;4.366;2023-05-07T08:32:46;19.40;99.90
14531;DHT22;7352;50.866;4.366;2023-05-07T08:35:15;19.60;99.90
14531;DHT22;7352;50.866;4.366;2023-05-07T08:37:42;19.60;99.90
14531;DHT22;7352;50.866;4.366;2023-05-07T08:40:10;19.60;99.90
14531;DHT22;7352;50.866;4.366;2023-05-07T08:42:38;19.60;99.90
14531;DHT22;7352;50.866;4.366;2023-05-07T08:45:09;19.50;99.90
14531;DHT22;7352;50.866;4.366;2023-05-07T08:47:42;19.50;99.90
14531;DHT22;7352;50.866;4.366;2023-05-07T08:50:12;19.40;99.90
14531;DHT22;7352;50.866;4.366;2023-05-07T08:52:42;19.40;99.90
14531;DHT22;7352;50.866;4.366;2023-05-07T08:55:10;19.40;99.90
14531;DHT22;7352;50.866;4.366;2023-05-07T08:57:38;19.30;99.90
14531;DHT22;7352;50.866;4.366;2023-05-07T09:00:20;19.40;99.90
14531;DHT22;7352;50.866;4.366;2023-05-07T09:02:50;19.60;99.90
14531;DHT22;7352;50.866;4.366;2023-05-07T09:05:21;19.50;99.90
14531;DHT22;7352;50.866;4.366;2023-05-07T09:08:00;19.60;99.90
14531;DHT22;7352;50.866;4.366;2023-05-07T09:10:29;19.50;99.90
14531;DHT22;7352;50.866;4.366;2023-05-07T09:12:58;19.50;99.90
14531;DHT22;7352;50.866;4.366;2023-05-07T09:15:26;19.30;99.90
14531;DHT22;7352;50.866;4.366;2023-05-07T09:17:59;19.20;99.90
14531;DHT22;7352;50.866;4.366;2023-05-07T09:20:31;19.20;99.90
14531;DHT22;7352;50.866;4.366;2023-05-07T09:22:58;19.50;99.90
14531;DHT22;7352;50.866;4.366;2023-05-07T09:25:29;19.50;99.90
14531;DHT22;7352;50.866;4.366;2023-05-07T09:27:56;19.50;99.90
14531;DHT22;7352;50.866;4.366;2023-05-07T09:30:27;19.70;99.90
14531;DHT22;7352;50.866;4.366;2023-05-07T09:32:55;19.70;99.90
14531;DHT22;7352;50.866;4.366;2023-05-07T09:35:22;19.90;99.90
14531;DHT22;7352;50.866;4.366;2023-05-07T09:37:55;20.00;99.90
14531;DHT22;7352;50.866;4.366;2023-05-07T09:40:23;20.00;99.90
14531;DHT22;7352;50.866;4.366;2023-05-07T09:42:50;20.00;99.90
14531;DHT22;7352;50.866;4.366;2023-05-07T09:45:22;20.10;99.90
14531;DHT22;7352;50.866;4.366;2023-05-07T09:47:54;20.10;99.90
14531;DHT22;7352;50.866;4.366;2023-05-07T09:50:27;20.10;99.90
14531;DHT22;7352;50.866;4.366;2023-05-07T09:52:56;20.30;99.90
14531;DHT22;7352;50.866;4.366;2023-05-07T09:55:25;20.40;99.90
14531;DHT22;7352;50.866;4.366;2023-05-07T09:57:53;20.50;99.90
14531;DHT22;7352;50.866;4.366;2023-05-07T10:00:22;20.60;99.90
14531;DHT22;7352;50.866;4.366;2023-05-07T10:02:51;20.60;99.90
14531;DHT22;7352;50.866;4.366;2023-05-07T10:05:19;20.80;99.90
14531;DHT22;7352;50.866;4.366;2023-05-07T10:07:47;20.80;99.90
14531;DHT22;7352;50.866;4.366;2023-05-07T10:10:16;20.80;99.90
14531;DHT22;7352;50.866;4.366;2023-05-07T10:12:44;20.70;99.90
14531;DHT22;7352;50.866;4.366;2023-05-07T10:15:11;20.90;99.90
14531;DHT22;7352;50.866;4.366;2023-05-07T10:17:40;21.00;99.90
14531;DHT22;7352;50.866;4.366;2023-05-07T10:20:08;21.00;99.90
14531;DHT22;7352;50.866;4.366;2023-05-07T10:22:38;21.10;99.90
14531;DHT22;7352;50.866;4.366;2023-05-07T10:25:12;20.80;99.90
14531;DHT22;7352;50.866;4.366;2023-05-07T10:27:43;20.70;99.90
14531;DHT22;7352;50.866;4.366;2023-05-07T10:30:18;20.70;99.90
14531;DHT22;7352;50.866;4.366;2023-05-07T10:32:49;20.70;99.90
14531;DHT22;7352;50.866;4.366;2023-05-07T10:35:19;20.60;99.90
14531;DHT22;7352;50.866;4.366;2023-05-07T10:37:47;20.60;99.90
14531;DHT22;7352;50.866;4.366;2023-05-07T10:40:14;20.70;99.90
14531;DHT22;7352;50.866;4.366;2023-05-07T10:42:59;20.50;99.90
14531;DHT22;7352;50.866;4.366;2023-05-07T10:45:27;20.70;99.90
14531;DHT22;7352;50.866;4.366;2023-05-07T10:48:12;20.70;99.90
14531;DHT22;7352;50.866;4.366;2023-05-07T10:50:40;20.80;99.90
14531;DHT22;7352;50.866;4.366;2023-05-07T10:53:25;20.80;99.90
14531;DHT22;7352;50.866;4.366;2023-05-07T10:56:25;21.00;99.90
14531;DHT22;7352;50.866;4.366;2023-05-07T10:58:54;20.90;99.90
14531;DHT22;7352;50.866;4.366;2023-05-07T11:01:50;20.90;99.90
14531;DHT22;7352;50.866;4.366;2023-05-07T11:04:18;20.80;99.90
14531;DHT22;7352;50.866;4.366;2023-05-07T11:07:21;20.80;99.90
14531;DHT22;7352;50.866;4.366;2023-05-07T11:10:04;21.10;99.90
14531;DHT22;7352;50.866;4.366;2023-05-07T11:12:51;21.30;99.90
14531;DHT22;7352;50.866;4.366;2023-05-07T11:15:39;21.50;99.90
14531;DHT22;7352;50.866;4.366;2023-05-07T11:18:07;21.60;99.90
14531;DHT22;7352;50.866;4.366;2023-05-07T11:20:58;21.70;99.90
14531;DHT22;7352;50.866;4.366;2023-05-07T11:26:46;21.80;99.90
14531;DHT22;7352;50.866;4.366;2023-05-07T11:29:18;21.80;99.90
14531;DHT22;7352;50.866;4.366;2023-05-07T11:31:50;21.90;99.90
14531;DHT22;7352;50.866;4.366;2023-05-07T11:34:21;22.00;99.90
14531;DHT22;7352;50.866;4.366;2023-05-07T11:36:49;21.90;99.90
14531;DHT22;7352;50.866;4.366;2023-05-07T11:39:30;22.00;99.90
14531;DHT22;7352;50.866;4.366;2023-05-07T11:41:59;22.10;99.90
14531;DHT22;7352;50.866;4.366;2023-05-07T11:44:42;21.70;99.90
14531;DHT22;7352;50.866;4.366;2023-05-07T11:47:12;21.80;99.90
14531;DHT22;7352;50.866;4.366;2023-05-07T11:49:47;21.90;99.90
14531;DHT22;7352;50.866;4.366;2023-05-07T11:52:15;21.60;99.90
14531;DHT22;7352;50.866;4.366;2023-05-07T11:54:48;21.90;99.90
14531;DHT22;7352;50.866;4.366;2023-05-07T11:57:17;22.00;99.90
14531;DHT22;7352;50.866;4.366;2023-05-07T11:59:44;21.90;99.90
14531;DHT22;7352;50.866;4.366;2023-05-07T12:02:15;21.90;99.90
14531;DHT22;7352;50.866;4.366;2023-05-07T12:04:42;22.20;99.90
14531;DHT22;7352;50.866;4.366;2023-05-07T12:07:13;22.20;99.90
14531;DHT22;7352;50.866;4.366;2023-05-07T12:09:41;22.40;99.90
14531;DHT22;7352;50.866;4.366;2023-05-07T12:12:08;22.30;99.90
14531;DHT22;7352;50.866;4.366;2023-05-07T12:14:38;22.40;99.90
14531;DHT22;7352;50.866;4.366;2023-05-07T12:17:06;22.60;99.90
14531;DHT22;7352;50.866;4.366;2023-05-07T12:19:36;22.60;99.90
14531;DHT22;7352;50.866;4.366;2023-05-07T12:22:05;22.40;99.90
14531;DHT22;7352;50.866;4.366;2023-05-07T12:24:43;22.40;99.90
14531;DHT22;7352;50.866;4.366;2023-05-07T12:27:11;22.60;99.90
14531;DHT22;7352;50.866;4.366;2023-05-07T12:29:38;22.70;99.90
14531;DHT22;7352;50.866;4.366;2023-05-07T12:32:13;22.70;99.90
14531;DHT22;7352;50.866;4.366;2023-05-07T12:34:41;22.90;99.90
14531;DHT22;7352;50.866;4.366;2023-05-07T12:37:08;23.10;99.90
14531;DHT22;7352;50.866;4.366;2023-05-07T12:39:35;23.00;99.90
14531;DHT22;7352;50.866;4.366;2023-05-07T12:42:02;22.80;99.90
14531;DHT22;7352;50.866;4.366;2023-05-07T12:44:33;22.70;99.90
14531;DHT22;7352;50.866;4.366;2023-05-07T12:47:01;22.60;99.90
14531;DHT22;7352;50.866;4.366;2023-05-07T12:49:29;22.50;99.90
14531;DHT22;7352;50.866;4.366;2023-05-07T12:51:58;22.50;99.90
14531;DHT22;7352;50.866;4.366;2023-05-07T12:54:30;22.70;99.90
14531;DHT22;7352;50.866;4.366;2023-05-07T12:57:02;23.00;99.90
14531;DHT22;7352;50.866;4.366;2023-05-07T12:59:36;22.90;99.90
14531;DHT22;7352;50.866;4.366;2023-05-07T13:02:04;22.80;99.90
14531;DHT22;7352;50.866;4.366;2023-05-07T13:04:32;22.80;99.90
14531;DHT22;7352;50.866;4.366;2023-05-07T13:07:01;22.80;99.90
14531;DHT22;7352;50.866;4.366;2023-05-07T13:09:31;22.90;99.90
14531;DHT22;7352;50.866;4.366;2023-05-07T13:11:59;22.80;99.90
14531;DHT22;7352;50.866;4.366;2023-05-07T13:14:27;22.90;99.90
14531;DHT22;7352;50.866;4.366;2023-05-07T13:16:55;22.80;99.90
14531;DHT22;7352;50.866;4.366;2023-05-07T13:19:23;22.70;99.90
14531;DHT22;7352;50.866;4.366;2023-05-07T13:21:51;22.80;99.90
14531;DHT22;7352;50.866;4.366;2023-05-07T13:24:20;22.70;99.90
14531;DHT22;7352;50.866;4.366;2023-05-07T13:26:48;22.70;99.90
14531;DHT22;7352;50.866;4.366;2023-05-07T13:29:16;22.70;99.90
14531;DHT22;7352;50.866;4.366;2023-05-07T13:31:59;22.70;99.90
14531;DHT22;7352;50.866;4.366;2023-05-07T13:34:32;22.80;99.90
14531;DHT22;7352;50.866;4.366;2023-05-07T13:37:01;22.70;99.90
14531;DHT22;7352;50.866;4.366;2023-05-07T13:39:43;22.80;99.90
14531;DHT22;7352;50.866;4.366;2023-05-07T13:42:14;22.80;99.90
14531;DHT22;7352;50.866;4.366;2023-05-07T13:44:57;22.70;99.90
14531;DHT22;7352;50.866;4.366;2023-05-07T13:47:25;22.70;99.90
14531;DHT22;7352;50.866;4.366;2023-05-07T13:49:52;22.60;99.90
14531;DHT22;7352;50.866;4.366;2023-05-07T13:52:19;22.50;99.90
14531;DHT22;7352;50.866;4.366;2023-05-07T13:54:49;22.50;99.90
14531;DHT22;7352;50.866;4.366;2023-05-07T13:57:21;22.60;99.90
14531;DHT22;7352;50.866;4.366;2023-05-07T13:59:54;22.60;99.90
14531;DHT22;7352;50.866;4.366;2023-05-07T14:02:21;22.50;99.90
14531;DHT22;7352;50.866;4.366;2023-05-07T14:04:49;22.50;99.90
14531;DHT22;7352;50.866;4.366;2023-05-07T14:07:16;22.50;99.90
14531;DHT22;7352;50.866;4.366;2023-05-07T14:09:43;22.60;99.90
14531;DHT22;7352;50.866;4.366;2023-05-07T14:12:15;22.50;99.90
14531;DHT22;7352;50.866;4.366;2023-05-07T14:14:48;22.60;99.90
14531;DHT22;7352;50.866;4.366;2023-05-07T14:17:16;22.80;99.90
14531;DHT22;7352;50.866;4.366;2023-05-07T14:19:43;22.60;99.90
14531;DHT22;7352;50.866;4.366;2023-05-07T14:22:10;22.50;99.90
14531;DHT22;7352;50.866;4.366;2023-05-07T14:24:38;22.60;99.90
14531;DHT22;7352;50.866;4.366;2023-05-07T14:27:35;22.50;99.90
14531;DHT22;7352;50.866;4.366;2023-05-07T14:30:06;22.40;99.90
14531;DHT22;7352;50.866;4.366;2023-05-07T14:32:33;22.50;99.90
14531;DHT22;7352;50.866;4.366;2023-05-07T14:35:00;22.70;99.90
14531;DHT22;7352;50.866;4.366;2023-05-07T14:37:27;22.60;99.90
14531;DHT22;7352;50.866;4.366;2023-05-07T14:39:55;22.70;99.90
14531;DHT22;7352;50.866;4.366;2023-05-07T14:42:22;22.80;99.90
14531;DHT22;7352;50.866;4.366;2023-05-07T14:44:50;22.90;99.90
14531;DHT22;7352;50.866;4.366;2023-05-07T14:47:18;23.00;99.90
14531;DHT22;7352;50.866;4.366;2023-05-07T14:49:45;23.00;99.90
14531;DHT22;7352;50.866;4.366;2023-05-07T14:52:13;23.10;99.90
14531;DHT22;7352;50.866;4.366;2023-05-07T14:54:40;22.80;99.90
14531;DHT22;7352;50.866;4.366;2023-05-07T14:57:09;22.70;99.90
14531;DHT22;7352;50.866;4.366;2023-05-07T14:59:38;22.80;99.90
14531;DHT22;7352;50.866;4.366;2023-05-07T15:02:09;22.90;99.90
14531;DHT22;7352;50.866;4.366;2023-05-07T15:04:36;23.00;99.90
14531;DHT22;7352;50.866;4.366;2023-05-07T15:07:06;22.80;99.90
14531;DHT22;7352;50.866;4.366;2023-05-07T15:09:33;22.70;99.90
14531;DHT22;7352;50.866;4.366;2023-05-07T15:12:00;22.70;99.90
14531;DHT22;7352;50.866;4.366;2023-05-07T15:14:27;22.80;99.90
14531;DHT22;7352;50.866;4.366;2023-05-07T15:16:54;22.70;99.90
14531;DHT22;7352;50.866;4.366;2023-05-07T15:19:25;22.50;99.90
14531;DHT22;7352;50.866;4.366;2023-05-07T15:21:55;22.50;99.90
14531;DHT22;7352;50.866;4.366;2023-05-07T15:24:23;22.60;99.90
14531;DHT22;7352;50.866;4.366;2023-05-07T15:26:51;22.50;99.90
14531;DHT22;7352;50.866;4.366;2023-05-07T15:29:18;22.30;99.90
14531;DHT22;7352;50.866;4.366;2023-05-07T15:31:46;22.50;99.90
14531;DHT22;7352;50.866;4.366;2023-05-07T15:34:14;22.50;99.90
14531;DHT22;7352;50.866;4.366;2023-05-07T15:36:43;22.50;99.90
14531;DHT22;7352;50.866;4.366;2023-05-07T15:39:10;22.40;99.90
14531;DHT22;7352;50.866;4.366;2023-05-07T15:41:39;22.30;99.90
14531;DHT22;7352;50.866;4.366;2023-05-07T15:44:06;22.40;99.90
14531;DHT22;7352;50.866;4.366;2023-05-07T15:46:33;22.30;99.90
14531;DHT22;7352;50.866;4.366;2023-05-07T15:49:02;22.20;99.90
14531;DHT22;7352;50.866;4.366;2023-05-07T15:51:30;21.90;99.90
14531;DHT22;7352;50.866;4.366;2023-05-07T15:53:58;22.00;99.90
14531;DHT22;7352;50.866;4.366;2023-05-07T15:56:25;22.20;99.90
14531;DHT22;7352;50.866;4.366;2023-05-07T15:58:52;22.20;99.90